createdAt,value
2023-12-19T00:01:48.444Z,90593.96
2023-12-19T00:04:16.684Z,90595.94
2023-12-19T00:06:44.285Z,90594.84
2023-12-19T00:09:11.523Z,90589.38
2023-12-19T00:11:38.983Z,90591.15
2023-12-19T00:14:07.563Z,90586.45
2023-12-19T00:16:39.847Z,90585.21
2023-12-19T00:19:09.648Z,90587.17
2023-12-19T00:21:37.539Z,90583.27
2023-12-19T00:24:06.006Z,90577.69
2023-12-19T00:26:33.481Z,90573.05
2023-12-19T00:29:01.113Z,90574.51
2023-12-19T00:31:33.291Z,90573.14
2023-12-19T00:34:00.966Z,90569.48
2023-12-19T00:36:28.538Z,90566.80
2023-12-19T00:38:56.264Z,90563.16
2023-12-19T00:41:23.922Z,90558.00
2023-12-19T00:43:53.926Z,90554.96
2023-12-19T00:46:21.506Z,90553.42
2023-12-19T00:48:49.604Z,90557.21
2023-12-19T00:51:20.161Z,90556.57
2023-12-19T00:53:48.286Z,90554.27
2023-12-19T00:56:15.740Z,90547.59
2023-12-19T00:58:44.943Z,90544.77
2023-12-19T01:01:12.366Z,90544.23
2023-12-19T01:03:40.367Z,90546.98
2023-12-19T01:06:08.659Z,90545.30
2023-12-19T01:08:36.800Z,90546.71
2023-12-19T01:11:04.511Z,90543.97
2023-12-19T01:13:31.930Z,90543.26
2023-12-19T01:15:59.626Z,90544.19
2023-12-19T01:18:27.413Z,90541.34
2023-12-19T01:20:54.912Z,90538.67
2023-12-19T01:23:22.838Z,90536.20
2023-12-19T01:25:50.964Z,90541.55
2023-12-19T01:28:18.842Z,90539.02
2023-12-19T01:30:46.562Z,90538.53
2023-12-19T01:33:14.270Z,90533.94
2023-12-19T01:35:42.146Z,90536.45
2023-12-19T01:38:10.610Z,90539.55
2023-12-19T01:40:38.150Z,90539.33
2023-12-19T01:43:16.881Z,90537.77
2023-12-19T01:45:44.337Z,90530.42
2023-12-19T01:48:12.721Z,90532.19
2023-12-19T01:50:40.777Z,90525.58
2023-12-19T01:53:09.607Z,90527.73
2023-12-19T01:55:38.959Z,90526.84
2023-12-19T01:58:08.152Z,90520.69
2023-12-19T02:00:37.539Z,90517.89
2023-12-19T02:03:06.184Z,90517.66
2023-12-19T02:05:39.710Z,90518.20
2023-12-19T02:08:07.648Z,90513.66
2023-12-19T02:10:35.090Z,90513.88
2023-12-19T02:13:02.696Z,90516.08
2023-12-19T02:15:30.311Z,90515.39
2023-12-19T02:17:57.786Z,90516.21
2023-12-19T02:20:25.347Z,90512.79
2023-12-19T02:22:53.178Z,90506.38
2023-12-19T02:25:22.103Z,90506.16
2023-12-19T02:27:49.648Z,90501.69
2023-12-19T02:30:17.385Z,90501.02
2023-12-19T02:32:47.363Z,90500.57
2023-12-19T02:35:15.312Z,90500.41
2023-12-19T02:37:43.073Z,90495.35
2023-12-19T02:40:12.461Z,90491.75
2023-12-19T02:42:44.566Z,90488.98
2023-12-19T02:45:13.308Z,90488.98
2023-12-19T02:47:40.985Z,90487.73
2023-12-19T02:50:09.224Z,90485.19
2023-12-19T02:52:36.820Z,90485.00
2023-12-19T02:55:05.860Z,90480.21
2023-12-19T02:57:33.379Z,90477.23
2023-12-19T03:00:01.320Z,90476.91
2023-12-19T03:02:28.796Z,90475.35
2023-12-19T03:04:57.059Z,90470.19
2023-12-19T03:07:25.124Z,90466.78
2023-12-19T03:09:52.711Z,90461.70
2023-12-19T03:12:20.246Z,90459.48
2023-12-19T03:14:47.911Z,90457.92
2023-12-19T03:17:15.408Z,90454.48
2023-12-19T03:19:43.445Z,90452.40
2023-12-19T03:22:10.904Z,90445.50
2023-12-19T03:24:38.900Z,90442.34
2023-12-19T03:27:06.237Z,90437.90
2023-12-19T03:29:34.601Z,90437.00
2023-12-19T03:32:02.243Z,90439.91
2023-12-19T03:34:29.802Z,90436.95
2023-12-19T03:36:58.519Z,90436.10
2023-12-19T03:39:26.206Z,90436.48
2023-12-19T03:42:10.771Z,90432.35
2023-12-19T03:44:43.988Z,90428.06
2023-12-19T03:47:15.177Z,90426.17
2023-12-19T03:49:42.862Z,90424.72
2023-12-19T03:52:10.817Z,90422.65
2023-12-19T03:54:38.642Z,90421.48
2023-12-19T03:57:07.134Z,90419.00
2023-12-19T03:59:34.804Z,90420.35
2023-12-19T04:02:02.767Z,90420.70
2023-12-19T04:04:30.339Z,90421.65
2023-12-19T04:06:58.160Z,90422.75
2023-12-19T04:09:25.756Z,90419.95
2023-12-19T04:11:53.007Z,90414.80
2023-12-19T04:14:20.567Z,90413.56
2023-12-19T04:16:47.807Z,90410.66
2023-12-19T04:19:16.367Z,90409.52
2023-12-19T04:21:45.272Z,90408.64
2023-12-19T04:24:12.853Z,90404.46
2023-12-19T04:26:40.911Z,90401.73
2023-12-19T04:29:08.366Z,90404.64
2023-12-19T04:31:36.257Z,90402.23
2023-12-19T04:34:04.374Z,90398.54
2023-12-19T04:36:33.249Z,90395.31
2023-12-19T04:39:01.072Z,90393.55
2023-12-19T04:41:28.529Z,90392.64
2023-12-19T04:43:55.895Z,90391.53
2023-12-19T04:46:23.651Z,90387.98
2023-12-19T04:48:51.254Z,90387.38
2023-12-19T04:51:23.823Z,90387.82
2023-12-19T04:53:52.933Z,90392.40
2023-12-19T04:56:20.871Z,90393.03
2023-12-19T04:58:49.087Z,90392.08
2023-12-19T05:01:18.061Z,90387.05
2023-12-19T05:03:45.870Z,90390.31
2023-12-19T05:06:19.940Z,90387.07
2023-12-19T05:08:47.697Z,90384.63
2023-12-19T05:11:15.838Z,90381.20
2023-12-19T05:13:43.840Z,90381.59
2023-12-19T05:16:15.671Z,90379.44
2023-12-19T05:18:45.095Z,90378.29
2023-12-19T05:21:14.076Z,90377.03
2023-12-19T05:23:42.394Z,90377.89
2023-12-19T05:26:10.821Z,90375.60
2023-12-19T05:28:40.858Z,90380.02
2023-12-19T05:31:12.177Z,90379.55
2023-12-19T05:33:40.211Z,90381.53
2023-12-19T05:36:08.639Z,90384.27
2023-12-19T05:38:36.492Z,90384.63
2023-12-19T05:41:05.095Z,90382.48
2023-12-19T05:43:33.252Z,90379.10
2023-12-19T05:46:04.642Z,90376.54
2023-12-19T05:48:32.293Z,90375.67
2023-12-19T05:51:01.672Z,90375.84
2023-12-19T05:53:29.563Z,90370.24
2023-12-19T05:55:57.114Z,90366.59
2023-12-19T05:58:24.885Z,90366.37
2023-12-19T06:00:52.430Z,90359.91
2023-12-19T06:03:20.213Z,90362.48
2023-12-19T06:05:48.329Z,90364.65
2023-12-19T06:08:18.937Z,90363.27
2023-12-19T06:10:46.659Z,90365.39
2023-12-19T06:13:14.536Z,90365.75
2023-12-19T06:15:42.298Z,90366.70
2023-12-19T06:18:10.258Z,90365.18
2023-12-19T06:20:38.022Z,90363.80
2023-12-19T06:23:05.570Z,90365.36
2023-12-19T06:25:34.592Z,90361.93
2023-12-19T06:28:02.171Z,90359.31
2023-12-19T06:30:33.762Z,90358.73
2023-12-19T06:33:03.421Z,90360.70
2023-12-19T06:35:32.379Z,90366.07
2023-12-19T06:38:00.385Z,90361.56
2023-12-19T06:40:28.125Z,90358.70
2023-12-19T06:42:56.041Z,90359.33
2023-12-19T06:45:23.728Z,90360.75
2023-12-19T06:47:51.464Z,90363.27
2023-12-19T06:50:20.349Z,90359.88
2023-12-19T06:52:48.429Z,90354.58
2023-12-19T06:55:16.244Z,90357.02
2023-12-19T06:57:44.036Z,90353.41
2023-12-19T07:00:12.486Z,90355.75
2023-12-19T07:02:40.119Z,90358.09
2023-12-19T07:05:07.720Z,90357.68
2023-12-19T07:07:35.758Z,90355.91
2023-12-19T07:10:05.092Z,90354.70
2023-12-19T07:12:32.772Z,90351.77
2023-12-19T07:15:01.006Z,90347.34
2023-12-19T07:17:28.536Z,90344.48
2023-12-19T07:19:56.286Z,90345.28
2023-12-19T07:22:24.081Z,90343.66
2023-12-19T07:24:51.671Z,90338.57
2023-12-19T07:27:19.222Z,90334.10
2023-12-19T07:29:46.930Z,90332.89
2023-12-19T07:32:14.548Z,90333.29
2023-12-19T07:34:42.128Z,90330.42
2023-12-19T07:37:11.361Z,90333.04
2023-12-19T07:39:38.982Z,90328.46
2023-12-19T07:42:06.639Z,90323.38
2023-12-19T07:44:34.293Z,90321.64
2023-12-19T07:47:01.734Z,90314.48
2023-12-19T07:49:29.258Z,90310.63
2023-12-19T07:51:58.439Z,90308.31
2023-12-19T07:54:26.415Z,90307.05
2023-12-19T07:56:54.329Z,90307.39
2023-12-19T07:59:23.116Z,90306.66
2023-12-19T08:01:51.095Z,90303.81
2023-12-19T08:04:19.545Z,90302.59
2023-12-19T08:06:49.258Z,90299.45
2023-12-19T08:09:17.034Z,90296.86
2023-12-19T08:11:45.157Z,90298.37
2023-12-19T08:14:13.387Z,90301.11
2023-12-19T08:16:41.981Z,90303.23
2023-12-19T08:19:09.475Z,90305.40
2023-12-19T08:21:59.571Z,90304.24
2023-12-19T08:24:27.415Z,90303.26
2023-12-19T08:26:55.041Z,90300.58
2023-12-19T08:29:23.308Z,90301.54
2023-12-19T08:31:50.884Z,90301.11
2023-12-19T08:34:20.148Z,90303.30
2023-12-19T08:36:47.849Z,90303.73
2023-12-19T08:39:15.616Z,90301.87
2023-12-19T08:41:48.180Z,90304.02
2023-12-19T08:44:15.870Z,90301.14
2023-12-19T08:46:43.410Z,90301.35
2023-12-19T08:49:12.482Z,90298.86
2023-12-19T08:51:48.080Z,90298.13
2023-12-19T08:54:16.220Z,90301.52
2023-12-19T08:56:44.054Z,90295.71
2023-12-19T08:59:12.121Z,90293.84
2023-12-19T09:01:42.732Z,90295.66
2023-12-19T09:04:10.363Z,90300.45
2023-12-19T09:06:38.134Z,90300.00
2023-12-19T09:09:06.391Z,90300.36
2023-12-19T09:11:35.204Z,90300.77
2023-12-19T09:14:02.731Z,90299.16
2023-12-19T09:16:34.182Z,90298.61
2023-12-19T09:19:02.130Z,90296.98
2023-12-19T09:21:30.147Z,90296.39
2023-12-19T09:23:57.664Z,90296.70
2023-12-19T09:26:25.296Z,90294.91
2023-12-19T09:28:53.413Z,90295.00
2023-12-19T09:31:21.052Z,90294.46
2023-12-19T09:33:50.165Z,90290.23
2023-12-19T09:36:28.388Z,90292.09
2023-12-19T09:38:55.941Z,90286.84
2023-12-19T09:41:25.924Z,90286.16
2023-12-19T09:43:53.507Z,90281.84
2023-12-19T09:46:21.596Z,90277.21
2023-12-19T09:48:51.194Z,90274.66
2023-12-19T09:51:39.040Z,90268.81
2023-12-19T09:54:06.916Z,90263.19
2023-12-19T09:56:36.165Z,90262.11
2023-12-19T09:59:09.545Z,90258.55
2023-12-19T10:01:39.784Z,90250.09
2023-12-19T10:04:15.357Z,90253.11
2023-12-19T10:06:56.190Z,90251.85
2023-12-19T10:09:24.516Z,90248.23
2023-12-19T10:12:14.021Z,90245.93
2023-12-19T10:14:41.634Z,90238.77
2023-12-19T10:17:19.463Z,90236.40
2023-12-19T10:19:47.256Z,90231.92
2023-12-19T10:22:21.531Z,90229.52
2023-12-19T10:24:48.990Z,90224.98
2023-12-19T10:27:23.908Z,90222.05
2023-12-19T10:29:52.594Z,90217.81
2023-12-19T10:32:23.638Z,90212.42
2023-12-19T10:34:58.545Z,90206.40
2023-12-19T10:37:39.856Z,90201.98
2023-12-19T10:40:12.633Z,90199.23
2023-12-19T10:42:40.235Z,90196.65
2023-12-19T10:45:10.082Z,90192.28
2023-12-19T10:47:37.766Z,90188.71
2023-12-19T10:50:07.351Z,90187.42
2023-12-19T10:52:38.032Z,90182.76
2023-12-19T10:55:14.473Z,90181.28
2023-12-19T10:57:50.263Z,90179.48
2023-12-19T11:04:00.795Z,90172.85
2023-12-19T11:06:38.254Z,90165.83
2023-12-19T11:09:09.148Z,90164.09
2023-12-19T11:11:39.270Z,90161.08
2023-12-19T11:14:06.579Z,90159.96
2023-12-19T11:16:33.271Z,90157.14
2023-12-19T11:19:09.189Z,90154.54
2023-12-19T11:21:57.912Z,90150.52
2023-12-19T11:24:54.122Z,90147.07
2023-12-19T11:27:27.002Z,90138.42
2023-12-19T11:29:57.200Z,90136.33
2023-12-19T11:32:30.269Z,90133.00
2023-12-19T11:35:09.621Z,90131.41
2023-12-19T11:37:37.925Z,90124.04
2023-12-19T11:40:06.885Z,90117.12
2023-12-19T11:42:40.358Z,90117.95
2023-12-19T11:45:19.844Z,90115.59
2023-12-19T11:47:51.469Z,90108.07
2023-12-19T11:50:40.606Z,90102.83
2023-12-19T11:53:08.155Z,90095.95
2023-12-19T11:55:35.818Z,90092.25
2023-12-19T11:58:13.500Z,90092.73
2023-12-19T12:00:43.677Z,90088.89
2023-12-19T12:03:14.065Z,90084.66
2023-12-19T12:05:41.603Z,90078.92
2023-12-19T12:08:15.137Z,90076.70
2023-12-19T12:10:44.344Z,90070.33
2023-12-19T12:13:11.459Z,90069.68
2023-12-19T12:15:38.507Z,90064.27
2023-12-19T12:18:06.579Z,90061.67
2023-12-19T12:20:35.502Z,90060.77
2023-12-19T12:23:03.023Z,90052.20
2023-12-19T12:25:32.576Z,90049.09
2023-12-19T12:28:11.040Z,90044.50
2023-12-19T12:30:39.620Z,90043.64
2023-12-19T12:33:08.738Z,90040.48
2023-12-19T12:35:38.037Z,90034.21
2023-12-19T12:38:07.493Z,90030.83
2023-12-19T12:40:34.564Z,90024.97
2023-12-19T12:43:28.897Z,90019.29
2023-12-19T12:46:10.557Z,90013.66
2023-12-19T12:48:40.141Z,90009.73
2023-12-19T12:51:07.776Z,90010.14
2023-12-19T12:53:35.958Z,90005.13
2023-12-19T12:56:15.080Z,90002.95
2023-12-19T12:58:43.747Z,89997.56
2023-12-19T13:01:11.670Z,89994.31
2023-12-19T13:03:38.906Z,89992.42
2023-12-19T13:06:06.625Z,89990.48
2023-12-19T13:08:35.738Z,89987.17
2023-12-19T13:11:03.949Z,89985.75
2023-12-19T13:13:31.249Z,89983.23
2023-12-19T13:15:58.662Z,89981.94
2023-12-19T13:18:25.688Z,89979.15
2023-12-19T13:20:53.898Z,89978.13
2023-12-19T13:23:21.421Z,89981.71
2023-12-19T13:25:50.091Z,89974.95
2023-12-19T13:28:19.085Z,89969.50
2023-12-19T13:30:46.451Z,89968.30
2023-12-19T13:33:15.181Z,89959.16
2023-12-19T13:35:43.347Z,89959.06
2023-12-19T13:38:10.270Z,89953.19
2023-12-19T13:40:38.335Z,89948.81
2023-12-19T13:43:06.521Z,89944.34
2023-12-19T13:45:35.135Z,89940.52
2023-12-19T13:48:05.271Z,89935.79
2023-12-19T13:50:32.582Z,89931.65
2023-12-19T13:53:00.858Z,89932.08
2023-12-19T13:55:27.822Z,89928.44
2023-12-19T13:57:54.455Z,89925.05
2023-12-19T14:00:29.199Z,89923.23
2023-12-19T14:02:59.668Z,89923.95
2023-12-19T14:05:28.237Z,89921.16
2023-12-19T14:07:56.669Z,89918.79
2023-12-19T14:10:24.819Z,89915.61
2023-12-19T14:12:52.295Z,89913.96
2023-12-19T14:15:20.577Z,89916.45
2023-12-19T14:17:48.058Z,89913.34
2023-12-19T14:20:19.058Z,89913.70
2023-12-19T14:22:46.308Z,89907.23
2023-12-19T14:25:13.493Z,89904.00
2023-12-19T14:27:40.552Z,89900.80
2023-12-19T14:30:10.405Z,89900.86
2023-12-19T14:32:39.563Z,89897.10
2023-12-19T14:35:09.314Z,89892.66
2023-12-19T14:37:36.196Z,89894.02
2023-12-19T14:40:04.826Z,89889.83
2023-12-19T14:42:32.684Z,89885.64
2023-12-19T14:45:00.081Z,89888.82
2023-12-19T14:47:29.861Z,89880.34
2023-12-19T14:49:57.047Z,89884.25
2023-12-19T14:52:24.503Z,89884.23
2023-12-19T14:54:51.387Z,89880.89
2023-12-19T14:57:18.116Z,89878.29
2023-12-19T14:59:45.173Z,89877.65
2023-12-19T15:02:11.867Z,89878.98
2023-12-19T15:04:38.791Z,89871.00
2023-12-19T15:07:06.399Z,89866.66
2023-12-19T15:09:34.816Z,89862.95
2023-12-19T15:12:04.047Z,89855.98
2023-12-19T15:14:31.741Z,89857.64
2023-12-19T15:16:59.262Z,89851.98
2023-12-19T15:19:26.201Z,89851.45
2023-12-19T15:21:53.223Z,89848.37
2023-12-19T15:24:20.348Z,89852.45
2023-12-19T15:26:47.058Z,89851.33
2023-12-19T15:29:15.614Z,89849.88
2023-12-19T15:31:44.110Z,89848.37
2023-12-19T15:34:12.124Z,89846.52
2023-12-19T15:36:39.877Z,89848.63
2023-12-19T15:39:07.515Z,89852.00
2023-12-19T15:41:34.930Z,89849.59
2023-12-19T15:44:08.474Z,89852.60
2023-12-19T15:46:42.884Z,89850.15
2023-12-19T15:49:12.983Z,89845.35
2023-12-19T15:51:39.791Z,89845.24
2023-12-19T15:54:07.058Z,89842.26
2023-12-19T15:56:34.845Z,89839.42
2023-12-19T15:59:07.398Z,89841.08
2023-12-19T16:01:34.633Z,89838.10
2023-12-19T16:04:01.685Z,89832.94
2023-12-19T16:06:29.049Z,89834.46
2023-12-19T16:08:56.461Z,89831.02
2023-12-19T16:11:25.052Z,89835.45
2023-12-19T16:13:53.425Z,89834.35
2023-12-19T16:16:20.470Z,89835.49
2023-12-19T16:18:48.901Z,89836.77
2023-12-19T16:21:22.595Z,89834.31
2023-12-19T16:24:00.329Z,89836.89
2023-12-19T16:26:34.669Z,89832.19
2023-12-19T16:29:02.309Z,89837.38
2023-12-19T16:31:29.881Z,89836.13
2023-12-19T16:33:57.258Z,89833.85
2023-12-19T16:36:24.118Z,89837.35
2023-12-19T16:38:52.314Z,89837.17
2023-12-19T16:41:22.651Z,89839.06
2023-12-19T16:43:51.310Z,89842.02
2023-12-19T16:46:20.136Z,89842.31
2023-12-19T16:48:47.711Z,89841.50
2023-12-19T16:51:15.145Z,89843.31
2023-12-19T16:53:42.961Z,89840.75
2023-12-19T16:56:15.934Z,89844.38
2023-12-19T16:58:45.546Z,89843.45
2023-12-19T17:01:16.854Z,89841.89
2023-12-19T17:03:45.002Z,89842.25
2023-12-19T17:06:12.368Z,89838.33
2023-12-19T17:08:39.276Z,89836.45
2023-12-19T17:11:07.862Z,89834.98
2023-12-19T17:13:35.015Z,89829.52
2023-12-19T17:16:02.079Z,89828.83
2023-12-19T17:18:29.437Z,89819.47
2023-12-19T17:20:56.326Z,89818.02
2023-12-19T17:23:24.327Z,89814.20
2023-12-19T17:25:53.243Z,89815.45
2023-12-19T17:28:20.202Z,89814.07
2023-12-19T17:30:48.018Z,89817.77
2023-12-19T17:33:15.081Z,89813.78
2023-12-19T17:35:41.902Z,89814.48
2023-12-19T17:38:08.890Z,89813.48
2023-12-19T17:40:35.774Z,89815.20
2023-12-19T17:43:02.886Z,89811.30
2023-12-19T17:45:30.137Z,89810.46
2023-12-19T17:47:57.031Z,89811.55
2023-12-19T17:50:23.977Z,89808.11
2023-12-19T17:52:50.933Z,89804.60
2023-12-19T17:55:18.672Z,89802.36
2023-12-19T17:57:46.078Z,89803.59
2023-12-19T18:00:14.778Z,89800.13
2023-12-19T18:02:41.972Z,89797.36
2023-12-19T18:05:09.332Z,89798.18
2023-12-19T18:07:37.172Z,89794.13
2023-12-19T18:10:04.952Z,89790.52
2023-12-19T18:12:33.086Z,89785.49
2023-12-19T18:15:00.381Z,89781.86
2023-12-19T18:17:28.018Z,89783.98
2023-12-19T18:19:56.562Z,89781.07
2023-12-19T18:22:24.090Z,89783.87
2023-12-19T18:24:51.398Z,89782.54
2023-12-19T18:27:18.558Z,89781.41
2023-12-19T18:29:46.068Z,89780.76
2023-12-19T18:32:14.570Z,89773.66
2023-12-19T18:34:46.048Z,89766.22
2023-12-19T18:37:14.019Z,89766.54
2023-12-19T18:39:41.584Z,89767.00
2023-12-19T18:42:11.114Z,89764.89
2023-12-19T18:44:39.196Z,89763.48
2023-12-19T18:47:06.763Z,89762.17
2023-12-19T18:49:34.214Z,89760.33
2023-12-19T18:52:01.473Z,89761.98
2023-12-19T18:54:28.713Z,89763.55
2023-12-19T18:56:56.022Z,89760.39
2023-12-19T18:59:25.362Z,89760.45
2023-12-19T19:01:52.916Z,89757.09
2023-12-19T19:04:20.655Z,89751.57
2023-12-19T19:06:48.398Z,89749.95
2023-12-19T19:09:15.615Z,89750.92
2023-12-19T19:11:46.738Z,89747.97
2023-12-19T19:14:15.096Z,89742.90
2023-12-19T19:16:42.822Z,89740.73
2023-12-19T19:19:10.394Z,89740.03
2023-12-19T19:21:38.175Z,89738.68
2023-12-19T19:24:06.305Z,89740.59
2023-12-19T19:26:33.855Z,89734.45
2023-12-19T19:29:01.235Z,89735.67
2023-12-19T19:31:29.067Z,89732.52
2023-12-19T19:33:56.282Z,89731.07
2023-12-19T19:36:26.031Z,89734.86
2023-12-19T19:38:53.706Z,89734.70
2023-12-19T19:41:22.975Z,89736.52
2023-12-19T19:43:53.521Z,89731.73
2023-12-19T19:46:21.452Z,89728.38
2023-12-19T19:48:49.501Z,89724.49
2023-12-19T19:51:16.722Z,89726.11
2023-12-19T19:53:43.687Z,89716.96
2023-12-19T19:56:11.057Z,89716.46
2023-12-19T19:58:38.370Z,89713.88
2023-12-19T20:01:05.998Z,89714.13
2023-12-19T20:03:33.661Z,89709.26
2023-12-19T20:06:01.775Z,89710.96
2023-12-19T20:08:31.785Z,89699.52
2023-12-19T20:10:59.359Z,89704.48
2023-12-19T20:13:26.904Z,89699.83
2023-12-19T20:15:54.934Z,89699.14
2023-12-19T20:18:22.218Z,89694.65
2023-12-19T20:20:49.896Z,89694.11
2023-12-19T20:23:17.351Z,89691.66
2023-12-19T20:25:45.366Z,89692.34
2023-12-19T20:28:12.588Z,89686.81
2023-12-19T20:30:39.650Z,89685.98
2023-12-19T20:33:07.116Z,89682.69
2023-12-19T20:35:34.316Z,89678.11
2023-12-19T20:38:02.156Z,89676.05
2023-12-19T20:40:32.208Z,89673.99
2023-12-19T20:43:00.481Z,89670.40
2023-12-19T20:45:27.844Z,89664.06
2023-12-19T20:47:55.068Z,89661.30
2023-12-19T20:50:22.525Z,89660.59
2023-12-19T20:52:56.269Z,89654.70
2023-12-19T20:55:26.100Z,89653.62
2023-12-19T20:57:53.574Z,89649.58
2023-12-19T21:00:22.988Z,89646.82
2023-12-19T21:02:51.630Z,89648.55
2023-12-19T21:05:20.440Z,89647.24
2023-12-19T21:07:49.351Z,89643.65
2023-12-19T21:10:17.330Z,89637.84
2023-12-19T21:12:45.541Z,89634.44
2023-12-19T21:15:13.260Z,89627.23
2023-12-19T21:17:40.538Z,89625.20
2023-12-19T21:20:08.599Z,89620.42
2023-12-19T21:22:35.777Z,89616.42
2023-12-19T21:25:03.940Z,89611.45
2023-12-19T21:27:31.515Z,89606.06
2023-12-19T21:29:58.361Z,89600.76
2023-12-19T21:32:25.538Z,89593.99
2023-12-19T21:34:52.549Z,89591.73
2023-12-19T21:37:20.018Z,89591.98
2023-12-19T21:39:46.975Z,89586.96
2023-12-19T21:42:14.109Z,89585.77
2023-12-19T21:44:41.471Z,89578.27
2023-12-19T21:47:08.624Z,89577.08
2023-12-19T21:49:38.727Z,89567.10
2023-12-19T21:52:06.940Z,89566.13
2023-12-19T21:54:34.131Z,89562.78
2023-12-19T21:57:04.684Z,89559.66
2023-12-19T21:59:32.168Z,89555.09
2023-12-19T22:01:59.623Z,89550.27
2023-12-19T22:04:27.165Z,89545.55
2023-12-19T22:06:54.666Z,89544.10
2023-12-19T22:09:23.400Z,89542.02
2023-12-19T22:11:50.771Z,89535.38
2023-12-19T22:14:18.241Z,89537.43
2023-12-19T22:16:45.376Z,89533.15
2023-12-19T22:19:14.236Z,89531.16
2023-12-19T22:21:41.562Z,89523.09
2023-12-19T22:24:08.972Z,89515.09
2023-12-19T22:26:40.546Z,89514.81
2023-12-19T22:29:08.201Z,89513.05
2023-12-19T22:31:38.704Z,89513.73
2023-12-19T22:34:06.399Z,89512.06
2023-12-19T22:36:33.533Z,89506.77
2023-12-19T22:39:01.081Z,89507.84
2023-12-19T22:41:28.048Z,89505.76
2023-12-19T22:43:55.165Z,89497.45
2023-12-19T22:46:22.238Z,89494.35
2023-12-19T22:48:50.398Z,89487.79
2023-12-19T22:51:17.985Z,89487.12
2023-12-19T22:53:45.417Z,89480.58
2023-12-19T22:56:21.694Z,89476.92
2023-12-19T22:58:49.129Z,89472.13
2023-12-19T23:01:25.199Z,89469.63
2023-12-19T23:03:52.841Z,89462.98
2023-12-19T23:06:22.014Z,89465.15
2023-12-19T23:08:49.328Z,89457.59
2023-12-19T23:11:16.769Z,89453.77
2023-12-19T23:13:44.723Z,89453.33
2023-12-19T23:16:15.961Z,89447.91
2023-12-19T23:18:43.355Z,89442.58
2023-12-19T23:21:13.221Z,89438.38
2023-12-19T23:23:40.605Z,89430.80
2023-12-19T23:26:09.202Z,89426.14
2023-12-19T23:28:36.038Z,89420.40
2023-12-19T23:31:03.419Z,89417.12
2023-12-19T23:33:30.647Z,89413.84
2023-12-19T23:35:57.889Z,89406.35
2023-12-19T23:38:24.925Z,89403.45
2023-12-19T23:40:51.894Z,89396.05
2023-12-19T23:43:19.868Z,89390.23
2023-12-19T23:45:49.811Z,89388.02
2023-12-19T23:48:18.962Z,89385.71
2023-12-19T23:50:46.509Z,89383.02
2023-12-19T23:53:13.577Z,89379.19
2023-12-19T23:55:40.918Z,89374.14
2023-12-19T23:58:10.270Z,89373.83
